Terminal Aerodrome Forecast
Issued by NWS Cleveland, OH

Home | Current Version | Previous Version | Text Only | Print | Product List | Glossary Off
Versions: 1 2 3 4 5 6 7 8 9 10 11 12 13 14 15 16 17 18 19 20 21 22 23 24

000
FTUS41 KCLE 271133
TAFMFD
TAF
KMFD 271133Z 2712/2812 14012KT 3SM SHRA BR OVC007
     FM271600 06012KT 5SM -SHRA BR VCTS SCT007 OVC010CB
     FM272000 02012KT 3SM -SHRA BR VCTS SCT007 OVC010CB
     FM280300 21012KT 2SM BR VCSH OVC007=

USA.gov is the U.S. government's official web portal to all federal, state and local government web resources and services.